createdAt,value
2018-09-15T00:00:35.933Z,18.43
2018-09-15T00:03:04.177Z,18.03
2018-09-15T00:05:32.469Z,19.40
2018-09-15T00:08:01.630Z,18.13
2018-09-15T00:10:30.001Z,18.37
2018-09-15T00:12:58.254Z,18.27
2018-09-15T00:15:26.457Z,17.33
2018-09-15T00:17:55.209Z,18.50
2018-09-15T00:20:23.521Z,17.20
2018-09-15T00:22:51.783Z,17.60
2018-09-15T00:25:20.019Z,17.50
2018-09-15T00:27:48.320Z,16.93
2018-09-15T00:30:17.170Z,17.23
2018-09-15T00:32:45.489Z,17.17
2018-09-15T00:35:13.748Z,17.13
2018-09-15T00:37:41.998Z,17.37
2018-09-15T00:40:10.266Z,18.30
2018-09-15T00:42:38.615Z,17.83
2018-09-15T00:45:06.853Z,17.77
2018-09-15T00:47:35.097Z,18.47
2018-09-15T00:50:03.378Z,18.60
2018-09-15T00:52:32.154Z,18.43
2018-09-15T00:55:00.490Z,19.30
2018-09-15T00:57:28.742Z,18.40
2018-09-15T00:59:56.980Z,19.63
2018-09-15T01:02:25.420Z,17.90
2018-09-15T01:04:53.661Z,19.30
2018-09-15T01:07:21.949Z,17.43
2018-09-15T01:09:50.161Z,17.80
2018-09-15T01:12:18.492Z,19.77
2018-09-15T01:14:46.786Z,18.37
2018-09-15T01:17:15.066Z,18.37
2018-09-15T01:19:43.377Z,19.40
2018-09-15T01:22:11.562Z,17.70
2018-09-15T01:24:39.799Z,18.57
2018-09-15T01:27:08.202Z,17.87
2018-09-15T01:29:36.583Z,17.80
2018-09-15T01:32:04.922Z,17.50
2018-09-15T01:34:33.192Z,19.40
2018-09-15T01:37:01.554Z,18.90
2018-09-15T01:39:29.844Z,17.90
2018-09-15T01:41:58.125Z,18.80
2018-09-15T01:44:26.612Z,18.33
2018-09-15T01:46:54.894Z,18.97
2018-09-15T01:49:23.283Z,18.50
2018-09-15T01:51:51.512Z,18.17
2018-09-15T01:54:19.906Z,19.70
2018-09-15T01:56:48.170Z,18.30
2018-09-15T01:59:16.492Z,18.53
2018-09-15T02:01:44.922Z,18.60
2018-09-15T02:04:13.129Z,17.90
2018-09-15T02:06:41.494Z,18.93
2018-09-15T02:09:12.299Z,18.03
2018-09-15T02:11:40.765Z,16.73
2018-09-15T02:14:09.135Z,16.13
2018-09-15T02:16:37.635Z,17.90
2018-09-15T02:19:06.031Z,16.57
2018-09-15T02:21:34.342Z,15.30
2018-09-15T02:24:02.569Z,16.37
2018-09-15T02:26:30.936Z,17.17
2018-09-15T02:28:59.319Z,15.40
2018-09-15T02:31:27.549Z,16.00
2018-09-15T02:33:55.774Z,16.53
2018-09-15T02:36:24.321Z,15.03
2018-09-15T02:38:52.771Z,16.07
2018-09-15T02:41:21.034Z,15.77
2018-09-15T02:43:49.291Z,16.17
2018-09-15T02:46:17.702Z,16.37
2018-09-15T02:48:46.287Z,17.37
2018-09-15T02:51:14.628Z,17.07
2018-09-15T02:53:43.068Z,18.10
2018-09-15T02:56:11.285Z,16.00
2018-09-15T02:58:39.730Z,17.07
2018-09-15T03:01:08.024Z,17.00
2018-09-15T03:03:36.346Z,17.33
2018-09-15T03:06:06.227Z,18.30
2018-09-15T03:08:34.465Z,16.77
2018-09-15T03:11:02.710Z,17.63
2018-09-15T03:13:31.086Z,16.43
2018-09-15T03:15:59.280Z,17.63
2018-09-15T03:18:27.580Z,17.70
2018-09-15T03:20:55.883Z,17.43
2018-09-15T03:23:24.254Z,16.03
2018-09-15T03:25:52.605Z,15.27
2018-09-15T03:28:20.803Z,16.90
2018-09-15T03:30:49.234Z,16.50
2018-09-15T03:33:17.598Z,15.30
2018-09-15T03:35:45.834Z,15.93
2018-09-15T03:38:14.042Z,16.57
2018-09-15T03:40:42.251Z,16.30
2018-09-15T03:43:10.490Z,16.67
2018-09-15T03:45:38.779Z,16.13
2018-09-15T03:48:07.057Z,15.83
2018-09-15T03:50:35.294Z,15.73
2018-09-15T03:53:03.512Z,15.90
2018-09-15T03:55:31.798Z,16.63
2018-09-15T03:58:00.154Z,16.27
2018-09-15T04:00:28.417Z,17.03
2018-09-15T04:02:56.603Z,16.93
2018-09-15T04:05:24.815Z,16.67
2018-09-15T04:07:53.026Z,16.63
2018-09-15T04:10:21.259Z,16.33
2018-09-15T04:12:49.509Z,15.50
2018-09-15T04:15:17.764Z,16.30
2018-09-15T04:17:46.214Z,15.03
2018-09-15T04:20:14.479Z,15.93
2018-09-15T04:22:42.698Z,15.67
2018-09-15T04:25:10.921Z,15.77
2018-09-15T04:27:39.250Z,16.40
2018-09-15T04:30:07.527Z,16.33
2018-09-15T04:32:35.786Z,16.17
2018-09-15T04:35:03.998Z,16.57
2018-09-15T04:37:32.177Z,16.83
2018-09-15T04:40:00.578Z,16.93
2018-09-15T04:42:28.768Z,16.73
2018-09-15T04:44:56.973Z,16.20
2018-09-15T04:47:25.277Z,16.13
2018-09-15T04:49:53.503Z,16.57
2018-09-15T04:52:21.934Z,16.90
2018-09-15T04:54:50.139Z,15.53
2018-09-15T04:57:18.353Z,14.93
2018-09-15T04:59:46.583Z,15.87
2018-09-15T05:02:14.963Z,16.97
2018-09-15T05:04:43.224Z,17.40
2018-09-15T05:07:11.447Z,14.60
2018-09-15T05:09:39.891Z,15.40
2018-09-15T05:12:08.185Z,14.93
2018-09-15T05:14:36.393Z,14.97
2018-09-15T05:17:04.654Z,15.10
2018-09-15T05:19:32.930Z,14.13
2018-09-15T05:22:01.182Z,15.07
2018-09-15T05:24:29.500Z,14.43
2018-09-15T05:26:57.686Z,13.83
2018-09-15T05:29:25.891Z,13.10
2018-09-15T05:31:54.177Z,14.27
2018-09-15T05:34:22.403Z,13.37
2018-09-15T05:36:50.637Z,13.07
2018-09-15T05:39:18.902Z,14.37
2018-09-15T05:41:47.136Z,12.93
2018-09-15T05:44:15.433Z,13.50
2018-09-15T05:46:43.726Z,14.03
2018-09-15T05:49:11.926Z,13.00
2018-09-15T05:51:40.147Z,14.07
2018-09-15T05:54:08.429Z,13.23
2018-09-15T05:56:36.684Z,12.03
2018-09-15T05:59:05.391Z,12.20
2018-09-15T06:01:33.658Z,11.90
2018-09-15T06:04:02.081Z,12.73
2018-09-15T06:06:30.346Z,11.73
2018-09-15T06:08:58.644Z,12.27
2018-09-15T06:11:26.922Z,11.90
2018-09-15T06:13:55.219Z,11.50
2018-09-15T06:16:23.601Z,11.80
2018-09-15T06:18:51.816Z,12.10
2018-09-15T06:21:20.174Z,10.87
2018-09-15T06:23:48.443Z,10.17
2018-09-15T06:26:16.901Z,10.77
2018-09-15T06:28:45.421Z,11.40
2018-09-15T06:31:13.754Z,10.20
2018-09-15T06:33:44.014Z,10.33
2018-09-15T06:36:12.235Z,9.97
2018-09-15T06:38:40.434Z,11.30
2018-09-15T06:41:08.903Z,9.57
2018-09-15T06:43:37.207Z,9.87
2018-09-15T06:46:05.720Z,11.23
2018-09-15T06:48:33.946Z,11.50
2018-09-15T06:51:02.279Z,10.90
2018-09-15T06:53:30.517Z,11.20
2018-09-15T06:55:58.774Z,11.70
2018-09-15T06:58:27.162Z,10.73
2018-09-15T07:00:55.619Z,12.53
2018-09-15T07:03:23.817Z,11.40
2018-09-15T07:05:52.194Z,11.47
2018-09-15T07:08:20.608Z,10.37
2018-09-15T07:10:49.185Z,11.23
2018-09-15T07:13:17.735Z,12.20
2018-09-15T07:15:46.091Z,12.07
2018-09-15T07:18:14.555Z,11.93
2018-09-15T07:20:42.923Z,10.57
2018-09-15T07:23:11.228Z,11.87
2018-09-15T07:25:39.858Z,11.97
2018-09-15T07:28:08.239Z,11.87
2018-09-15T07:30:36.584Z,12.27
2018-09-15T07:33:04.860Z,11.00
2018-09-15T07:35:33.102Z,9.63
2018-09-15T07:38:01.499Z,8.77
2018-09-15T07:40:30.454Z,8.47
2018-09-15T07:42:58.968Z,8.30
2018-09-15T07:45:27.179Z,9.23
2018-09-15T07:47:55.415Z,7.33
2018-09-15T07:50:23.739Z,7.53
2018-09-15T07:52:52.389Z,6.23
2018-09-15T07:55:20.705Z,6.37
2018-09-15T07:57:49.017Z,6.10
2018-09-15T08:00:18.131Z,6.80
2018-09-15T08:02:46.427Z,6.43
2018-09-15T08:05:15.396Z,6.27
2018-09-15T08:07:44.084Z,5.43
2018-09-15T08:10:12.852Z,6.03
2018-09-15T08:12:41.360Z,5.12
2018-09-15T08:15:09.821Z,4.75
2018-09-15T08:17:38.110Z,4.83
2018-09-15T08:20:06.385Z,4.75
2018-09-15T08:22:34.636Z,4.78
2018-09-15T08:25:03.145Z,4.70
2018-09-15T08:27:31.608Z,3.77
2018-09-15T08:29:59.969Z,4.05
2018-09-15T08:32:28.288Z,3.35
2018-09-15T08:35:00.042Z,3.67
2018-09-15T08:37:28.326Z,4.08
2018-09-15T08:39:56.679Z,4.00
2018-09-15T08:42:25.020Z,3.98
2018-09-15T08:44:53.333Z,3.70
2018-09-15T08:47:21.702Z,3.95
2018-09-15T08:49:50.680Z,3.60
2018-09-15T08:52:18.964Z,3.52
2018-09-15T08:54:47.419Z,3.35
2018-09-15T08:57:15.875Z,3.37
2018-09-15T08:59:44.131Z,3.10
2018-09-15T09:02:12.822Z,3.05
2018-09-15T09:04:42.014Z,3.10
2018-09-15T09:07:10.574Z,3.00
2018-09-15T09:09:38.875Z,3.67
2018-09-15T09:12:07.514Z,4.12
2018-09-15T09:14:35.746Z,3.30
2018-09-15T09:17:04.247Z,3.72
2018-09-15T09:19:32.842Z,3.60
2018-09-15T09:22:02.035Z,2.85
2018-09-15T09:24:30.254Z,3.55
2018-09-15T09:26:58.563Z,3.50
2018-09-15T09:29:26.767Z,3.47
2018-09-15T09:31:59.790Z,3.42
2018-09-15T09:34:28.015Z,3.80
2018-09-15T09:36:56.323Z,3.20
2018-09-15T09:39:24.654Z,3.17
2018-09-15T09:41:53.019Z,3.50
2018-09-15T09:44:21.250Z,3.83
2018-09-15T09:46:49.462Z,3.10
2018-09-15T09:49:17.778Z,2.27
2018-09-15T09:51:46.258Z,3.05
2018-09-15T09:54:14.478Z,2.77
2018-09-15T09:56:42.791Z,2.83
2018-09-15T09:59:11.043Z,3.00
2018-09-15T10:01:46.415Z,2.90
2018-09-15T10:04:15.247Z,2.98
2018-09-15T10:06:43.470Z,2.85
2018-09-15T10:09:11.891Z,3.87
2018-09-15T10:17:45.875Z,2.65
2018-09-15T10:20:14.198Z,3.08
2018-09-15T10:22:42.466Z,2.98
2018-09-15T10:25:14.148Z,2.45
2018-09-15T10:27:42.460Z,2.87
2018-09-15T10:30:11.076Z,2.65
2018-09-15T10:32:39.371Z,2.98
2018-09-15T10:35:07.627Z,2.30
2018-09-15T10:37:42.395Z,2.87
2018-09-15T10:40:11.568Z,2.60
2018-09-15T10:42:39.765Z,2.65
2018-09-15T10:45:08.010Z,2.80
2018-09-15T10:47:36.209Z,2.60
2018-09-15T10:50:11.552Z,2.80
2018-09-15T10:52:39.984Z,2.77
2018-09-15T10:55:08.267Z,2.10
2018-09-15T10:57:36.551Z,2.95
2018-09-15T11:00:05.248Z,2.30
2018-09-15T11:02:33.516Z,2.40
2018-09-15T11:05:01.876Z,3.00
2018-09-15T11:07:30.170Z,3.17
2018-09-15T11:09:58.413Z,3.00
2018-09-15T11:12:26.719Z,3.27
2018-09-15T11:14:55.094Z,2.95
2018-09-15T11:17:23.794Z,3.02
2018-09-15T11:19:52.075Z,2.87
2018-09-15T11:22:20.327Z,2.83
2018-09-15T11:24:48.535Z,2.80
2018-09-15T11:27:16.895Z,3.20
2018-09-15T11:29:45.108Z,3.25
2018-09-15T11:32:13.631Z,3.08
2018-09-15T11:34:41.847Z,2.95
2018-09-15T11:37:10.141Z,2.67
2018-09-15T11:39:38.497Z,2.77
2018-09-15T11:42:06.719Z,2.75
2018-09-15T11:44:34.932Z,3.02
2018-09-15T11:47:03.754Z,3.12
2018-09-15T11:49:32.074Z,3.33
2018-09-15T11:52:00.451Z,3.22
2018-09-15T11:54:28.706Z,2.80
2018-09-15T11:56:56.912Z,3.30
2018-09-15T11:59:25.160Z,2.98
2018-09-15T12:01:53.423Z,3.10
2018-09-15T12:04:21.636Z,3.10
2018-09-15T12:06:49.830Z,3.55
2018-09-15T12:09:18.169Z,3.33
2018-09-15T12:11:46.447Z,2.83
2018-09-15T12:14:14.977Z,3.10
2018-09-15T12:16:43.147Z,2.67
2018-09-15T12:19:11.357Z,2.33
2018-09-15T12:21:39.724Z,2.85
2018-09-15T12:24:07.894Z,2.08
2018-09-15T12:26:36.264Z,2.80
2018-09-15T12:29:04.463Z,2.20
2018-09-15T12:31:32.704Z,2.20
2018-09-15T12:34:01.002Z,2.10
2018-09-15T12:36:29.220Z,2.15
2018-09-15T12:38:57.486Z,2.72
2018-09-15T12:41:25.718Z,2.17
2018-09-15T12:43:53.942Z,1.95
2018-09-15T12:46:22.350Z,1.75
2018-09-15T12:48:50.684Z,2.50
2018-09-15T12:51:18.899Z,2.83
2018-09-15T12:53:48.056Z,2.62
2018-09-15T12:56:16.267Z,2.40
2018-09-15T12:58:44.495Z,2.80
2018-09-15T13:01:12.719Z,1.95
2018-09-15T13:03:40.994Z,2.55
2018-09-15T13:06:09.395Z,1.95
2018-09-15T13:08:37.622Z,2.30
2018-09-15T13:11:05.866Z,2.22
2018-09-15T13:13:34.124Z,2.30
2018-09-15T13:16:02.490Z,2.50
2018-09-15T13:18:30.747Z,2.03
2018-09-15T13:20:58.963Z,2.60
2018-09-15T13:23:27.217Z,2.55
2018-09-15T13:25:55.479Z,2.75
2018-09-15T13:28:23.817Z,2.27
2018-09-15T13:30:52.143Z,2.58
2018-09-15T13:33:20.346Z,2.65
2018-09-15T13:35:48.568Z,2.70
2018-09-15T13:38:16.784Z,2.10
2018-09-15T13:40:45.009Z,2.40
2018-09-15T13:43:13.238Z,2.13
2018-09-15T13:45:41.415Z,2.40
2018-09-15T13:48:09.625Z,2.40
2018-09-15T13:50:37.878Z,2.40
2018-09-15T13:53:06.145Z,1.97
2018-09-15T13:55:34.338Z,2.03
2018-09-15T13:58:02.790Z,2.23
2018-09-15T14:00:31.207Z,6.37
2018-09-15T14:02:59.333Z,3.00
2018-09-15T14:05:27.517Z,2.97
2018-09-15T14:07:55.802Z,2.20
2018-09-15T14:10:24.026Z,2.17
2018-09-15T14:12:52.223Z,2.57
2018-09-15T14:15:20.423Z,2.90
2018-09-15T14:17:48.685Z,2.47
2018-09-15T14:20:17.017Z,2.43
2018-09-15T14:22:45.217Z,2.53
2018-09-15T14:25:13.462Z,2.60
2018-09-15T14:27:41.669Z,2.47
2018-09-15T14:30:10.060Z,2.30
2018-09-15T14:32:38.370Z,2.30
2018-09-15T14:35:06.603Z,2.27
2018-09-15T14:37:34.959Z,2.57
2018-09-15T14:40:03.233Z,2.80
2018-09-15T14:42:31.545Z,2.30
2018-09-15T14:44:59.786Z,2.50
2018-09-15T14:47:28.046Z,2.53
2018-09-15T14:49:56.280Z,1.97
2018-09-15T14:52:24.633Z,2.30
2018-09-15T14:54:53.065Z,2.10
2018-09-15T14:57:21.253Z,2.87
2018-09-15T14:59:49.450Z,2.13
2018-09-15T15:02:17.913Z,2.67
2018-09-15T15:04:46.390Z,2.30
2018-09-15T15:07:14.654Z,3.10
2018-09-15T15:09:43.006Z,2.10
2018-09-15T15:12:11.451Z,5.87
2018-09-15T15:14:39.783Z,2.90
2018-09-15T15:17:08.055Z,2.20
2018-09-15T15:19:36.329Z,2.10
2018-09-15T15:22:04.509Z,2.12
2018-09-15T15:24:32.934Z,2.43
2018-09-15T15:27:01.149Z,2.13
2018-09-15T15:29:29.366Z,2.17
2018-09-15T15:31:57.558Z,2.30
2018-09-15T15:34:25.838Z,2.37
2018-09-15T15:36:54.061Z,2.20
2018-09-15T15:39:22.289Z,1.92
2018-09-15T15:41:50.566Z,2.00
2018-09-15T15:44:18.750Z,2.25
2018-09-15T15:46:47.098Z,2.30
2018-09-15T15:49:15.299Z,2.20
2018-09-15T15:51:43.608Z,1.52
2018-09-15T15:54:11.882Z,1.90
2018-09-15T15:56:40.207Z,2.00
2018-09-15T15:59:08.496Z,2.47
2018-09-15T16:01:36.720Z,1.95
2018-09-15T16:04:04.964Z,1.90
2018-09-15T16:06:33.391Z,2.08
2018-09-15T16:09:01.628Z,1.70
2018-09-15T16:11:29.873Z,1.90
2018-09-15T16:13:58.091Z,1.87
2018-09-15T16:16:26.304Z,2.15
2018-09-15T16:18:54.606Z,1.98
2018-09-15T16:21:22.935Z,1.60
2018-09-15T16:23:51.126Z,1.67
2018-09-15T16:26:19.711Z,1.97
2018-09-15T16:28:48.129Z,1.70
2018-09-15T16:31:16.437Z,2.00
2018-09-15T16:33:44.689Z,1.80
2018-09-15T16:36:12.903Z,1.90
2018-09-15T16:38:41.094Z,2.07
2018-09-15T16:41:09.309Z,1.67
2018-09-15T16:43:37.499Z,1.80
2018-09-15T16:46:05.695Z,2.27
2018-09-15T16:48:33.897Z,1.70
2018-09-15T16:51:02.354Z,1.73
2018-09-15T16:53:30.569Z,1.80
2018-09-15T16:55:58.873Z,1.80
2018-09-15T16:58:27.103Z,1.80
2018-09-15T17:00:55.389Z,1.60
2018-09-15T17:03:23.762Z,1.90
2018-09-15T17:05:51.984Z,1.87
2018-09-15T17:08:20.181Z,1.87
2018-09-15T17:10:48.409Z,1.80
2018-09-15T17:13:16.922Z,1.60
2018-09-15T17:15:45.141Z,1.97
2018-09-15T17:18:13.362Z,1.70
2018-09-15T17:20:41.868Z,1.80
2018-09-15T17:23:11.078Z,1.73
2018-09-15T17:25:39.358Z,1.80
2018-09-15T17:28:07.596Z,2.07
2018-09-15T17:30:35.801Z,1.63
2018-09-15T17:33:04.037Z,1.87
2018-09-15T17:35:32.349Z,2.00
2018-09-15T17:38:00.610Z,1.93
2018-09-15T17:40:28.843Z,2.83
2018-09-15T17:42:57.091Z,1.63
2018-09-15T17:45:25.558Z,2.07
2018-09-15T17:47:53.911Z,1.80
2018-09-15T17:50:22.156Z,2.10
2018-09-15T17:52:50.366Z,1.83
2018-09-15T17:55:18.577Z,2.23
2018-09-15T17:57:48.949Z,2.00
2018-09-15T18:00:17.581Z,2.30
2018-09-15T18:02:47.626Z,2.00
2018-09-15T18:05:16.152Z,2.13
2018-09-15T18:07:44.513Z,2.10
2018-09-15T18:10:12.787Z,2.00
2018-09-15T18:12:41.135Z,2.10
2018-09-15T18:15:09.787Z,2.27
2018-09-15T18:17:38.119Z,2.13
2018-09-15T18:20:06.452Z,1.87
2018-09-15T18:22:34.702Z,2.20
2018-09-15T18:25:03.042Z,2.10
2018-09-15T18:27:31.469Z,1.90
2018-09-15T18:29:59.862Z,2.90
2018-09-15T18:32:28.112Z,2.30
2018-09-15T18:34:56.331Z,2.30
2018-09-15T18:37:25.706Z,2.30
2018-09-15T18:39:53.966Z,2.10
2018-09-15T18:42:22.158Z,2.50
2018-09-15T18:44:50.359Z,2.47
2018-09-15T18:47:18.595Z,2.37
2018-09-15T18:49:46.939Z,1.93
2018-09-15T18:52:15.156Z,2.30
2018-09-15T18:54:43.367Z,2.40
2018-09-15T18:57:11.638Z,2.20
2018-09-15T18:59:40.508Z,2.50
2018-09-15T19:02:09.515Z,2.40
2018-09-15T19:04:37.769Z,2.47
2018-09-15T19:07:06.071Z,1.97
2018-09-15T19:09:34.311Z,2.10
2018-09-15T19:12:03.570Z,2.20
2018-09-15T19:14:31.950Z,2.37
2018-09-15T19:17:00.155Z,2.00
2018-09-15T19:19:28.337Z,2.47
2018-09-15T19:21:56.531Z,2.13
2018-09-15T19:24:25.739Z,1.70
2018-09-15T19:26:54.375Z,1.83
2018-09-15T19:29:22.529Z,2.40
2018-09-15T19:31:50.814Z,2.20
2018-09-15T19:34:19.030Z,2.10
2018-09-15T19:36:47.498Z,2.13
2018-09-15T19:39:15.812Z,2.13
2018-09-15T19:41:43.957Z,2.00
2018-09-15T19:44:12.174Z,2.77
2018-09-15T19:46:41.073Z,2.37
2018-09-15T19:49:10.093Z,2.10
2018-09-15T19:51:38.559Z,2.23
2018-09-15T19:54:06.853Z,1.83
2018-09-15T19:56:35.051Z,2.37
2018-09-15T19:59:04.523Z,2.10
2018-09-15T20:01:32.793Z,2.10
2018-09-15T20:04:01.678Z,1.60
2018-09-15T20:06:30.022Z,1.90
2018-09-15T20:08:58.273Z,2.00
2018-09-15T20:11:26.501Z,1.93
2018-09-15T20:13:54.983Z,2.10
2018-09-15T20:16:22.229Z,2.00
2018-09-15T20:18:49.439Z,2.27
2018-09-15T20:21:16.673Z,2.20
2018-09-15T20:23:44.945Z,2.10
2018-09-15T20:26:13.235Z,2.27
2018-09-15T20:28:41.579Z,2.20
2018-09-15T20:31:09.882Z,2.50
2018-09-15T20:33:38.208Z,2.50
2018-09-15T20:36:06.613Z,2.40
2018-09-15T20:38:34.839Z,2.47
2018-09-15T20:41:04.095Z,2.90
2018-09-15T20:43:32.832Z,2.70
2018-09-15T20:46:01.166Z,2.67
2018-09-15T20:48:29.414Z,2.60
2018-09-15T20:50:57.743Z,2.80
2018-09-15T20:53:25.974Z,2.50
2018-09-15T20:55:54.554Z,2.73
2018-09-15T20:58:22.769Z,2.63
2018-09-15T21:00:51.201Z,3.20
2018-09-15T21:03:19.403Z,2.83
2018-09-15T21:05:48.701Z,3.60
2018-09-15T21:08:17.467Z,2.80
2018-09-15T21:10:45.760Z,2.97
2018-09-15T21:13:13.992Z,3.10
2018-09-15T21:15:42.317Z,3.57
2018-09-15T21:18:11.102Z,3.23
2018-09-15T21:20:39.484Z,3.10
2018-09-15T21:23:07.755Z,3.03
2018-09-15T21:25:35.990Z,2.63
2018-09-15T21:28:04.208Z,2.60
2018-09-15T21:30:32.986Z,2.60
2018-09-15T21:33:01.493Z,2.50
2018-09-15T21:35:29.710Z,2.77
2018-09-15T21:37:57.917Z,2.63
2018-09-15T21:40:26.265Z,2.50
2018-09-15T21:42:54.524Z,2.60
2018-09-15T21:45:22.797Z,2.90
2018-09-15T21:47:51.058Z,2.50
2018-09-15T21:50:19.351Z,2.80
2018-09-15T21:52:48.459Z,2.83
2018-09-15T21:55:16.670Z,3.20
2018-09-15T21:57:44.878Z,3.20
2018-09-15T22:00:13.151Z,2.90
2018-09-15T22:02:41.354Z,3.07
2018-09-15T22:05:10.111Z,2.80
2018-09-15T22:07:38.326Z,3.20
2018-09-15T22:10:06.597Z,3.27
2018-09-15T22:12:34.814Z,3.00
2018-09-15T22:15:03.253Z,2.70
2018-09-15T22:17:31.542Z,3.03
2018-09-15T22:19:59.765Z,4.23
2018-09-15T22:22:28.078Z,3.90
2018-09-15T22:24:56.311Z,3.53
2018-09-15T22:27:24.798Z,3.53
2018-09-15T22:29:53.025Z,3.83
2018-09-15T22:32:21.556Z,3.90
2018-09-15T22:34:49.832Z,3.77
2018-09-15T22:37:18.261Z,3.80
2018-09-15T22:39:46.621Z,3.47
2018-09-15T22:42:15.198Z,3.40
2018-09-15T22:44:43.495Z,3.53
2018-09-15T22:47:11.748Z,3.83
2018-09-15T22:49:40.509Z,2.90
2018-09-15T22:52:09.046Z,3.10
2018-09-15T22:54:37.329Z,3.10
2018-09-15T22:57:05.610Z,3.30
2018-09-15T22:59:33.854Z,3.30
2018-09-15T23:02:02.364Z,2.87
2018-09-15T23:04:30.737Z,3.03
2018-09-15T23:06:58.951Z,3.60
2018-09-15T23:09:27.230Z,3.17
2018-09-15T23:11:56.046Z,2.80
2018-09-15T23:14:24.386Z,3.47
2018-09-15T23:16:52.682Z,3.50
2018-09-15T23:19:20.960Z,3.70
2018-09-15T23:21:49.167Z,4.30
2018-09-15T23:24:17.754Z,3.80
2018-09-15T23:26:46.054Z,3.70
2018-09-15T23:29:14.252Z,4.00
2018-09-15T23:31:42.799Z,4.50
2018-09-15T23:34:12.010Z,4.20
2018-09-15T23:36:40.258Z,4.50
2018-09-15T23:39:09.237Z,4.13
2018-09-15T23:41:37.455Z,3.93
2018-09-15T23:44:05.741Z,3.30
2018-09-15T23:46:33.972Z,4.00
2018-09-15T23:49:02.330Z,3.50
2018-09-15T23:51:30.546Z,4.23
2018-09-15T23:53:58.778Z,3.83
2018-09-15T23:56:27.002Z,4.37
2018-09-15T23:58:55.428Z,3.83
